createdAt,value
2023-07-11T00:02:18.382Z,101188.50
2023-07-11T00:04:44.816Z,101176.84
2023-07-11T00:07:11.267Z,101174.84
2023-07-11T00:09:37.682Z,101171.84
2023-07-11T00:12:06.664Z,101186.25
2023-07-11T00:14:33.262Z,101176.19
2023-07-11T00:16:59.737Z,101178.97
2023-07-11T00:19:26.464Z,101180.69
2023-07-11T00:21:52.933Z,101171.44
2023-07-11T00:24:19.328Z,101169.00
2023-07-11T00:26:45.777Z,101178.00
2023-07-11T00:29:17.866Z,101171.34
2023-07-11T00:31:44.281Z,101166.56
2023-07-11T00:34:10.904Z,101167.34
2023-07-11T00:36:37.599Z,101166.00
2023-07-11T00:39:04.364Z,101162.56
2023-07-11T00:41:30.780Z,101157.00
2023-07-11T00:43:57.202Z,101157.38
2023-07-11T00:46:25.250Z,101162.75
2023-07-11T00:48:55.037Z,101164.06
2023-07-11T00:51:26.924Z,101161.84
2023-07-11T00:53:54.272Z,101159.34
2023-07-11T00:56:25.841Z,101149.41
2023-07-11T00:58:54.186Z,101146.31
2023-07-11T01:01:21.605Z,101146.34
2023-07-11T01:03:51.482Z,101141.56
2023-07-11T01:06:21.478Z,101140.81
2023-07-11T01:08:50.600Z,101125.81
2023-07-11T01:11:18.630Z,101133.09
2023-07-11T01:13:45.241Z,101122.50
2023-07-11T01:16:11.925Z,101130.72
2023-07-11T01:18:38.882Z,101123.53
2023-07-11T01:21:06.857Z,101120.16
2023-07-11T01:23:35.185Z,101123.00
2023-07-11T01:26:02.676Z,101116.41
2023-07-11T01:28:29.687Z,101111.84
2023-07-11T01:30:56.589Z,101108.03
2023-07-11T01:33:23.845Z,101111.66
2023-07-11T01:35:50.444Z,101103.31
2023-07-11T01:38:16.901Z,101112.94
2023-07-11T01:40:44.668Z,101112.03
2023-07-11T01:43:11.342Z,101115.28
2023-07-11T01:45:37.847Z,101112.97
2023-07-11T01:48:04.547Z,101106.03
2023-07-11T01:50:31.014Z,101102.91
2023-07-11T01:52:57.476Z,101104.25
2023-07-11T01:55:24.025Z,101102.38
2023-07-11T01:57:52.259Z,101102.25
2023-07-11T02:00:18.924Z,101104.16
2023-07-11T02:02:45.653Z,101100.22
2023-07-11T02:05:12.222Z,101109.50
2023-07-11T02:07:38.632Z,101102.38
2023-07-11T02:10:06.557Z,101091.97
2023-07-11T02:12:33.034Z,101093.19
2023-07-11T02:15:01.027Z,101096.16
2023-07-11T02:17:27.638Z,101092.75
2023-07-11T02:19:54.214Z,101093.19
2023-07-11T02:22:20.667Z,101087.31
2023-07-11T02:24:47.080Z,101091.94
2023-07-11T02:27:13.673Z,101087.84
2023-07-11T02:29:40.156Z,101077.97
2023-07-11T02:32:08.941Z,101078.13
2023-07-11T02:34:35.370Z,101076.44
2023-07-11T02:37:01.797Z,101080.50
2023-07-11T02:39:28.228Z,101081.91
2023-07-11T02:41:54.870Z,101082.03
2023-07-11T02:44:21.290Z,101079.38
2023-07-11T02:46:47.713Z,101076.22
2023-07-11T02:49:15.478Z,101075.47
2023-07-11T02:51:41.902Z,101069.94
2023-07-11T02:54:08.455Z,101073.47
2023-07-11T02:56:35.638Z,101068.84
2023-07-11T02:59:02.109Z,101068.53
2023-07-11T03:01:31.256Z,101064.88
2023-07-11T03:03:57.841Z,101069.03
2023-07-11T03:06:25.654Z,101067.47
2023-07-11T03:08:52.103Z,101068.53
2023-07-11T03:11:18.578Z,101058.66
2023-07-11T03:13:45.007Z,101070.38
2023-07-11T03:16:11.736Z,101056.84
2023-07-11T03:18:38.491Z,101061.53
2023-07-11T03:21:04.906Z,101055.38
2023-07-11T03:23:32.884Z,101053.13
2023-07-11T03:25:59.316Z,101053.38
2023-07-11T03:28:25.907Z,101042.34
2023-07-11T03:30:52.713Z,101037.88
2023-07-11T03:33:19.398Z,101040.94
2023-07-11T03:35:49.186Z,101040.69
2023-07-11T03:38:15.630Z,101034.84
2023-07-11T03:40:43.445Z,101042.19
2023-07-11T03:43:11.048Z,101034.38
2023-07-11T03:45:41.270Z,101033.41
2023-07-11T03:48:07.907Z,101036.47
2023-07-11T03:50:34.326Z,101032.19
2023-07-11T03:53:00.737Z,101029.91
2023-07-11T03:55:27.199Z,101024.56
2023-07-11T03:57:54.950Z,101029.56
2023-07-11T04:00:21.805Z,101030.91
2023-07-11T04:02:48.329Z,101026.50
2023-07-11T04:05:15.583Z,101020.47
2023-07-11T04:07:42.011Z,101007.41
2023-07-11T04:10:09.455Z,101017.16
2023-07-11T04:12:35.912Z,101011.09
2023-07-11T04:15:04.196Z,101014.25
2023-07-11T04:17:30.645Z,101011.22
2023-07-11T04:19:57.034Z,101019.72
2023-07-11T04:22:23.722Z,101016.59
2023-07-11T04:24:50.166Z,101013.94
2023-07-11T04:27:16.641Z,101003.31
2023-07-11T04:29:43.322Z,101003.09
2023-07-11T04:32:11.100Z,101003.31
2023-07-11T04:34:37.597Z,101003.00
2023-07-11T04:37:04.403Z,101009.94
2023-07-11T04:39:31.013Z,101000.59
2023-07-11T04:41:57.435Z,100998.25
2023-07-11T04:44:23.962Z,101000.41
2023-07-11T04:46:50.461Z,100999.22
2023-07-11T04:49:18.496Z,101003.41
2023-07-11T04:51:45.002Z,100999.34
2023-07-11T04:54:11.500Z,101001.97
2023-07-11T04:56:40.353Z,100998.97
2023-07-11T04:59:06.895Z,100995.91
2023-07-11T05:01:33.592Z,100993.66
2023-07-11T05:04:00.169Z,100991.84
2023-07-11T05:06:27.981Z,100988.91
2023-07-11T05:08:54.566Z,100984.66
2023-07-11T05:11:22.249Z,100989.19
2023-07-11T05:13:50.601Z,100984.72
2023-07-11T05:16:18.837Z,100980.91
2023-07-11T05:18:47.396Z,100981.19
2023-07-11T05:21:15.509Z,100973.13
2023-07-11T05:23:43.343Z,100976.50
2023-07-11T05:26:10.089Z,100969.41
2023-07-11T05:28:37.101Z,100977.34
2023-07-11T05:31:06.932Z,100976.63
2023-07-11T05:33:33.936Z,100968.59
2023-07-11T05:36:00.639Z,100975.13
2023-07-11T05:38:27.056Z,100968.97
2023-07-11T05:40:57.162Z,100963.25
2023-07-11T05:43:23.577Z,100960.72
2023-07-11T05:45:50.265Z,100961.50
2023-07-11T05:48:16.738Z,100954.53
2023-07-11T05:50:43.289Z,100952.63
2023-07-11T05:53:09.885Z,100951.56
2023-07-11T05:55:36.306Z,100951.34
2023-07-11T05:58:04.082Z,100944.03
2023-07-11T06:00:30.548Z,100954.59
2023-07-11T06:02:57.006Z,100947.16
2023-07-11T06:05:24.459Z,100950.66
2023-07-11T06:07:50.944Z,100953.47
2023-07-11T06:10:17.567Z,100945.94
2023-07-11T06:12:44.004Z,100940.19
2023-07-11T06:15:12.383Z,100939.63
2023-07-11T06:17:38.869Z,100941.84
2023-07-11T06:20:06.831Z,100928.41
2023-07-11T06:22:33.355Z,100924.91
2023-07-11T06:24:59.793Z,100904.47
2023-07-11T06:27:26.262Z,100912.34
2023-07-11T06:29:52.778Z,100926.41
2023-07-11T06:32:20.612Z,100923.22
2023-07-11T06:34:47.159Z,100919.69
2023-07-11T06:37:13.744Z,100906.88
2023-07-11T06:39:41.245Z,100893.03
2023-07-11T06:42:07.751Z,100900.16
2023-07-11T06:44:34.290Z,100887.44
2023-07-11T06:47:00.727Z,100886.53
2023-07-11T06:49:28.503Z,100893.94
2023-07-11T06:51:55.149Z,100885.06
2023-07-11T06:54:21.674Z,100887.44
2023-07-11T06:56:48.120Z,100884.09
2023-07-11T06:59:20.055Z,100882.19
2023-07-11T07:01:46.626Z,100878.97
2023-07-11T07:04:13.219Z,100879.31
2023-07-11T07:06:41.122Z,100873.31
2023-07-11T07:09:08.073Z,100870.59
2023-07-11T07:11:35.068Z,100862.75
2023-07-11T07:14:06.344Z,100860.94
2023-07-11T07:16:33.833Z,100858.28
2023-07-11T07:19:00.432Z,100859.94
2023-07-11T07:21:27.012Z,100855.84
2023-07-11T07:23:54.795Z,100854.97
2023-07-11T07:26:21.276Z,100848.88
2023-07-11T07:28:47.748Z,100853.41
2023-07-11T07:31:14.804Z,100855.81
2023-07-11T07:33:41.907Z,100854.53
2023-07-11T07:36:11.345Z,100850.47
2023-07-11T07:38:37.814Z,100855.72
2023-07-11T07:41:07.589Z,100844.88
2023-07-11T07:43:35.356Z,100839.50
2023-07-11T07:46:03.431Z,100841.22
2023-07-11T07:48:30.062Z,100834.72
2023-07-11T07:51:01.687Z,100836.75
2023-07-11T07:53:28.119Z,100837.41
2023-07-11T07:55:54.539Z,100828.91
2023-07-11T07:58:36.929Z,100824.97
2023-07-11T08:01:08.992Z,100818.66
2023-07-11T08:03:35.814Z,100823.13
2023-07-11T08:06:14.183Z,100809.72
2023-07-11T08:08:42.700Z,100812.16
2023-07-11T08:11:10.010Z,100805.44
2023-07-11T08:13:53.614Z,100798.44
2023-07-11T08:18:53.979Z,100797.53
2023-07-11T08:21:20.408Z,100797.09
2023-07-11T08:23:46.881Z,100785.06
2023-07-11T08:26:13.427Z,100791.63
2023-07-11T08:28:41.342Z,100785.13
2023-07-11T08:31:08.067Z,100782.28
2023-07-11T08:33:34.726Z,100779.84
2023-07-11T08:36:01.166Z,100775.81
2023-07-11T08:38:27.603Z,100783.53
2023-07-11T08:40:54.061Z,100772.78
2023-07-11T08:43:26.284Z,100771.91
2023-07-11T08:46:11.272Z,100773.63
2023-07-11T08:48:44.965Z,100770.00
2023-07-11T08:51:17.938Z,100770.47
2023-07-11T08:53:51.948Z,100757.19
2023-07-11T08:56:23.198Z,100756.66
2023-07-11T08:58:51.682Z,100755.47
2023-07-11T09:01:33.427Z,100754.06
2023-07-11T09:04:00.745Z,100755.81
2023-07-11T09:06:35.510Z,100746.03
2023-07-11T09:09:01.958Z,100745.28
2023-07-11T09:11:33.873Z,100739.19
2023-07-11T09:14:11.103Z,100737.84
2023-07-11T09:16:45.857Z,100738.03
2023-07-11T09:19:25.454Z,100731.28
2023-07-11T09:21:57.679Z,100733.94
2023-07-11T09:24:31.324Z,100720.66
2023-07-11T09:27:02.167Z,100720.38
2023-07-11T09:29:29.454Z,100724.81
2023-07-11T09:32:01.977Z,100713.91
2023-07-11T09:34:33.675Z,100711.09
2023-07-11T09:37:03.805Z,100713.59
2023-07-11T09:39:38.820Z,100708.94
2023-07-11T09:42:13.983Z,100703.78
2023-07-11T09:44:40.437Z,100707.53
2023-07-11T09:47:17.756Z,100693.69
2023-07-11T09:49:47.670Z,100700.19
2023-07-11T09:52:22.319Z,100694.16
2023-07-11T09:54:59.786Z,100693.75
2023-07-11T09:57:34.994Z,100691.41
2023-07-11T10:00:20.989Z,100677.91
2023-07-11T10:02:51.111Z,100683.47
2023-07-11T10:05:18.587Z,100683.59
2023-07-11T10:07:45.131Z,100679.53
2023-07-11T10:10:14.334Z,100678.41
2023-07-11T10:12:43.508Z,100671.28
2023-07-11T10:15:15.516Z,100677.41
2023-07-11T10:17:44.449Z,100671.84
2023-07-11T10:20:20.027Z,100669.31
2023-07-11T10:22:50.141Z,100665.97
2023-07-11T10:25:20.199Z,100657.34
2023-07-11T10:27:53.560Z,100667.50
2023-07-11T10:30:27.105Z,100653.84
2023-07-11T10:33:07.917Z,100643.06
2023-07-11T10:35:41.839Z,100647.91
2023-07-11T10:38:17.455Z,100648.41
2023-07-11T10:40:46.601Z,100635.97
2023-07-11T10:43:23.311Z,100634.22
2023-07-11T10:45:52.553Z,100638.34
2023-07-11T10:48:26.623Z,100628.56
2023-07-11T10:50:58.067Z,100623.97
2023-07-11T10:53:29.863Z,100627.94
2023-07-11T10:56:01.604Z,100622.00
2023-07-11T10:58:28.306Z,100616.31
2023-07-11T11:01:16.992Z,100614.84
2023-07-11T11:03:46.622Z,100610.28
2023-07-11T11:06:33.100Z,100598.91
2023-07-11T11:09:09.172Z,100607.16
2023-07-11T11:11:47.170Z,100597.25
2023-07-11T11:14:16.333Z,100595.28
2023-07-11T11:17:05.607Z,100591.81
2023-07-11T11:19:46.017Z,100587.75
2023-07-11T11:22:21.817Z,100584.22
2023-07-11T11:24:57.110Z,100580.50
2023-07-11T11:27:43.235Z,100576.66
2023-07-11T11:30:26.117Z,100580.56
2023-07-11T11:33:01.323Z,100585.72
2023-07-11T11:35:37.197Z,100572.72
2023-07-11T11:38:36.307Z,100560.72
2023-07-11T11:41:11.407Z,100562.00
2023-07-11T11:45:58.807Z,100565.50
2023-07-11T11:46:32.422Z,100566.31
2023-07-11T11:51:31.480Z,100554.97
2023-07-11T11:54:16.412Z,100543.78
2023-07-11T11:56:45.632Z,100551.97
2023-07-11T11:59:18.001Z,100542.41
2023-07-11T12:01:57.487Z,100541.94
2023-07-11T12:04:57.966Z,100527.94
2023-07-11T12:07:27.749Z,100527.69
2023-07-11T12:10:12.520Z,100522.25
2023-07-11T12:13:13.619Z,100528.31
2023-07-11T12:15:40.696Z,100515.38
2023-07-11T12:18:36.685Z,100506.59
2023-07-11T12:21:22.164Z,100505.03
2023-07-11T12:26:23.907Z,100505.22
2023-07-11T12:28:51.222Z,100501.47
2023-07-11T12:31:21.177Z,100501.31
2023-07-11T12:34:01.529Z,100493.72
2023-07-11T12:36:44.916Z,100499.91
2023-07-11T12:39:23.076Z,100501.84
2023-07-11T12:42:01.153Z,100490.25
2023-07-11T12:44:32.784Z,100490.16
2023-07-11T12:47:02.888Z,100492.63
2023-07-11T12:49:30.423Z,100488.09
2023-07-11T12:52:05.079Z,100484.56
2023-07-11T12:54:31.547Z,100481.41
2023-07-11T12:56:59.369Z,100486.63
2023-07-11T12:59:27.713Z,100486.09
2023-07-11T13:01:57.044Z,100476.88
2023-07-11T13:04:33.976Z,100478.00
2023-07-11T13:07:00.899Z,100465.38
2023-07-11T13:09:27.758Z,100472.06
2023-07-11T13:11:55.071Z,100469.03
2023-07-11T13:14:23.402Z,100458.88
2023-07-11T13:16:50.781Z,100451.66
2023-07-11T13:19:19.256Z,100452.13
2023-07-11T13:21:47.504Z,100449.22
2023-07-11T13:24:17.643Z,100444.75
2023-07-11T13:26:44.109Z,100446.53
2023-07-11T13:29:16.645Z,100444.81
2023-07-11T13:31:46.837Z,100438.22
2023-07-11T13:34:15.535Z,100442.63
2023-07-11T13:36:44.623Z,100436.59
2023-07-11T13:39:13.774Z,100434.19
2023-07-11T13:41:40.285Z,100441.16
2023-07-11T13:44:15.293Z,100443.09
2023-07-11T13:46:41.842Z,100441.53
2023-07-11T13:49:16.489Z,100439.28
2023-07-11T13:51:42.999Z,100428.34
2023-07-11T13:54:16.145Z,100436.50
2023-07-11T13:56:42.632Z,100438.06
2023-07-11T13:59:09.553Z,100425.22
2023-07-11T14:01:41.521Z,100431.88
2023-07-11T14:04:17.191Z,100418.50
2023-07-11T14:06:44.255Z,100419.50
2023-07-11T14:09:12.025Z,100414.56
2023-07-11T14:11:39.369Z,100414.84
2023-07-11T14:14:21.685Z,100405.81
2023-07-11T14:16:58.850Z,100405.72
2023-07-11T14:19:29.352Z,100400.50
2023-07-11T14:21:55.905Z,100389.50
2023-07-11T14:24:22.336Z,100401.69
2023-07-11T14:26:49.234Z,100396.94
2023-07-11T14:29:23.232Z,100390.97
2023-07-11T14:31:50.849Z,100389.47
2023-07-11T14:34:20.207Z,100391.81
2023-07-11T14:36:48.895Z,100390.25
2023-07-11T14:39:15.952Z,100381.63
2023-07-11T14:41:49.503Z,100374.13
2023-07-11T14:44:24.203Z,100387.84
2023-07-11T14:46:51.952Z,100375.69
2023-07-11T14:49:18.938Z,100385.69
2023-07-11T14:51:45.598Z,100370.56
2023-07-11T14:54:16.785Z,100363.59
2023-07-11T14:59:24.832Z,100365.28
2023-07-11T15:01:52.339Z,100374.47
2023-07-11T15:11:48.560Z,100351.53
2023-07-11T15:16:49.709Z,100348.69
2023-07-11T15:19:17.702Z,100347.56
2023-07-11T15:21:45.838Z,100340.75
2023-07-11T15:24:15.285Z,100341.94
2023-07-11T15:26:43.323Z,100333.22
2023-07-11T15:29:12.439Z,100329.78
2023-07-11T15:31:38.929Z,100322.59
2023-07-11T15:34:11.006Z,100324.31
2023-07-11T15:36:37.426Z,100321.00
2023-07-11T15:39:04.078Z,100318.50
2023-07-11T15:41:30.680Z,100308.31
2023-07-11T15:44:00.384Z,100305.31
2023-07-11T15:46:26.917Z,100307.72
2023-07-11T15:48:53.415Z,100300.41
2023-07-11T15:51:19.859Z,100302.38
2023-07-11T15:53:46.346Z,100302.34
2023-07-11T15:56:13.704Z,100299.56
2023-07-11T15:58:40.317Z,100301.31
2023-07-11T16:01:08.549Z,100285.25
2023-07-11T16:03:35.176Z,100295.47
2023-07-11T16:06:02.144Z,100288.59
2023-07-11T16:08:33.424Z,100286.41
2023-07-11T16:11:01.869Z,100294.78
2023-07-11T16:13:30.529Z,100285.16
2023-07-11T16:15:57.627Z,100284.06
2023-07-11T16:18:26.765Z,100289.09
2023-07-11T16:20:53.429Z,100281.38
2023-07-11T16:23:21.658Z,100284.56
2023-07-11T16:25:49.172Z,100276.25
2023-07-11T16:28:21.531Z,100279.91
2023-07-11T16:30:47.983Z,100288.59
2023-07-11T16:33:20.971Z,100274.84
2023-07-11T16:35:48.811Z,100274.44
2023-07-11T16:38:17.713Z,100276.94
2023-07-11T16:40:45.030Z,100270.47
2023-07-11T16:43:11.590Z,100268.34
2023-07-11T16:45:38.015Z,100263.63
2023-07-11T16:48:09.984Z,100266.09
2023-07-11T16:50:36.609Z,100256.75
2023-07-11T16:53:15.791Z,100242.66
2023-07-11T16:55:42.300Z,100249.81
2023-07-11T16:58:17.967Z,100245.06
2023-07-11T17:00:44.523Z,100247.34
2023-07-11T17:03:12.639Z,100245.59
2023-07-11T17:05:39.540Z,100240.16
2023-07-11T17:08:11.997Z,100238.63
2023-07-11T17:10:38.507Z,100238.88
2023-07-11T17:13:11.660Z,100237.72
2023-07-11T17:15:38.087Z,100232.25
2023-07-11T17:18:04.651Z,100239.50
2023-07-11T17:20:31.158Z,100231.84
2023-07-11T17:22:57.869Z,100225.78
2023-07-11T17:25:25.822Z,100221.34
2023-07-11T17:27:52.826Z,100225.09
2023-07-11T17:30:22.688Z,100220.13
2023-07-11T17:32:49.323Z,100224.78
2023-07-11T17:35:16.673Z,100221.34
2023-07-11T17:37:45.091Z,100213.69
2023-07-11T17:40:18.536Z,100211.28
2023-07-11T17:42:46.687Z,100209.75
2023-07-11T17:45:18.567Z,100204.47
2023-07-11T17:50:24.547Z,100193.13
2023-07-11T17:52:51.396Z,100193.38
2023-07-11T17:55:18.229Z,100182.72
2023-07-11T17:57:46.193Z,100180.19
2023-07-11T18:00:15.366Z,100178.38
2023-07-11T18:02:57.093Z,100178.03
2023-07-11T18:05:27.014Z,100170.34
2023-07-11T18:07:53.453Z,100178.22
2023-07-11T18:10:23.985Z,100170.25
2023-07-11T18:13:08.320Z,100169.25
2023-07-11T18:15:36.897Z,100164.53
2023-07-11T18:18:04.088Z,100163.63
2023-07-11T18:20:31.604Z,100157.28
2023-07-11T18:22:58.673Z,100142.25
2023-07-11T18:25:25.279Z,100143.22
2023-07-11T18:27:53.075Z,100143.81
2023-07-11T18:30:23.965Z,100141.03
2023-07-11T18:32:51.120Z,100131.66
2023-07-11T18:35:19.437Z,100126.78
2023-07-11T18:37:47.326Z,100120.91
2023-07-11T18:40:24.102Z,100120.00
2023-07-11T18:42:53.338Z,100103.91
2023-07-11T18:45:21.455Z,100104.31
2023-07-11T18:47:48.113Z,100095.00
2023-07-11T18:50:18.262Z,100102.25
2023-07-11T18:52:45.105Z,100091.63
2023-07-11T18:55:12.721Z,100089.09
2023-07-11T18:57:39.563Z,100084.38
2023-07-11T19:00:19.736Z,100078.56
2023-07-11T19:02:46.600Z,100078.56
2023-07-11T19:05:13.527Z,100074.66
2023-07-11T19:07:40.041Z,100070.22
2023-07-11T19:10:16.451Z,100074.19
2023-07-11T19:12:42.970Z,100074.81
2023-07-11T19:15:14.241Z,100068.56
2023-07-11T19:17:43.469Z,100068.22
2023-07-11T19:20:18.951Z,100070.47
2023-07-11T19:22:46.664Z,100064.00
2023-07-11T19:25:15.930Z,100070.59
2023-07-11T19:27:44.842Z,100073.16
2023-07-11T19:30:22.435Z,100059.75
2023-07-11T19:32:50.396Z,100057.63
2023-07-11T19:35:17.069Z,100056.09
2023-07-11T19:37:46.468Z,100055.59
2023-07-11T19:40:16.669Z,100051.00
2023-07-11T19:42:43.227Z,100048.38
2023-07-11T19:45:13.772Z,100041.56
2023-07-11T19:47:41.864Z,100035.94
2023-07-11T19:50:35.623Z,100036.31
2023-07-11T19:53:02.129Z,100025.09
2023-07-11T19:55:29.538Z,100025.13
2023-07-11T19:57:56.508Z,100015.81
2023-07-11T20:00:30.031Z,100016.09
2023-07-11T20:02:58.368Z,100012.47
2023-07-11T20:05:26.801Z,100009.75
2023-07-11T20:07:53.455Z,99994.97
2023-07-11T20:10:32.498Z,99993.66
2023-07-11T20:13:00.109Z,99994.50
2023-07-11T20:15:26.572Z,99991.53
2023-07-11T20:17:53.147Z,99996.31
2023-07-11T20:20:24.404Z,100000.19
2023-07-11T20:22:51.048Z,100009.72
2023-07-11T20:25:18.730Z,100002.88
2023-07-11T20:27:45.500Z,100005.84
2023-07-11T20:30:15.884Z,100014.06
2023-07-11T20:32:42.925Z,100013.81
2023-07-11T20:35:11.454Z,100022.06
2023-07-11T20:37:39.615Z,100023.69
2023-07-11T20:40:19.624Z,100024.53
2023-07-11T20:42:46.141Z,100015.72
2023-07-11T20:45:12.989Z,100001.75
2023-07-11T20:47:39.515Z,99994.63
2023-07-11T20:50:15.267Z,99990.66
2023-07-11T20:52:43.240Z,99986.66
2023-07-11T20:55:11.544Z,99975.28
2023-07-11T20:57:38.057Z,99970.63
2023-07-11T21:00:18.645Z,99965.13
2023-07-11T21:02:45.317Z,99966.22
2023-07-11T21:05:13.056Z,99969.13
2023-07-11T21:07:39.572Z,99963.00
2023-07-11T21:10:18.754Z,99955.03
2023-07-11T21:12:45.700Z,99949.00
2023-07-11T21:15:12.799Z,99950.72
2023-07-11T21:17:51.560Z,99946.44
2023-07-11T21:20:22.443Z,99940.78
2023-07-11T21:22:49.099Z,99935.13
2023-07-11T21:25:16.941Z,99922.25
2023-07-11T21:27:43.464Z,99924.84
2023-07-11T21:30:24.528Z,99917.34
2023-07-11T21:32:52.571Z,99916.69
2023-07-11T21:35:22.467Z,99928.53
2023-07-11T21:37:49.325Z,99921.91
2023-07-11T21:40:21.583Z,99930.06
2023-07-11T21:42:48.595Z,99916.78
2023-07-11T21:45:16.892Z,99911.59
2023-07-11T21:47:43.775Z,99908.50
2023-07-11T21:50:34.030Z,99920.13
2023-07-11T21:53:00.937Z,99925.75
2023-07-11T21:55:28.740Z,99922.66
2023-07-11T21:57:55.245Z,99912.44
2023-07-11T22:00:25.410Z,99898.34
2023-07-11T22:02:52.306Z,99882.44
2023-07-11T22:05:18.969Z,99873.88
2023-07-11T22:07:46.685Z,99876.44
2023-07-11T22:10:23.583Z,99891.50
2023-07-11T22:12:51.375Z,99895.75
2023-07-11T22:15:18.942Z,99892.91
2023-07-11T22:17:45.696Z,99887.09
2023-07-11T22:20:15.933Z,99886.63
2023-07-11T22:22:42.450Z,99879.34
2023-07-11T22:25:09.003Z,99876.59
2023-07-11T22:27:35.433Z,99880.53
2023-07-11T22:30:03.929Z,99876.13
2023-07-11T22:32:30.442Z,99867.66
2023-07-11T22:34:56.910Z,99867.91
2023-07-11T22:37:23.326Z,99860.16
2023-07-11T22:39:49.742Z,99846.84
2023-07-11T22:42:16.139Z,99843.63
2023-07-11T22:44:42.578Z,99853.34
2023-07-11T22:47:10.802Z,99848.88
2023-07-11T22:49:37.258Z,99834.16
2023-07-11T22:52:04.166Z,99820.91
2023-07-11T22:54:30.811Z,99824.66
2023-07-11T22:56:57.245Z,99817.88
2023-07-11T22:59:23.737Z,99810.25
2023-07-11T23:01:50.200Z,99794.88
2023-07-11T23:04:18.028Z,99783.88
2023-07-11T23:06:44.553Z,99789.22
2023-07-11T23:09:12.635Z,99795.84
2023-07-11T23:11:39.120Z,99797.31
2023-07-11T23:14:05.569Z,99796.44
2023-07-11T23:16:32.055Z,99787.91
2023-07-11T23:19:01.978Z,99788.06
2023-07-11T23:21:30.752Z,99783.03
2023-07-11T23:23:57.867Z,99772.88
2023-07-11T23:26:27.852Z,99768.44
2023-07-11T23:28:55.965Z,99761.38
2023-07-11T23:31:22.524Z,99762.63
2023-07-11T23:33:49.308Z,99763.44
2023-07-11T23:36:20.152Z,99755.44
2023-07-11T23:38:50.076Z,99754.59
2023-07-11T23:41:17.069Z,99752.03
2023-07-11T23:43:43.698Z,99750.13
2023-07-11T23:46:18.597Z,99742.19
2023-07-11T23:48:45.311Z,99744.88
2023-07-11T23:51:12.238Z,99736.03
2023-07-11T23:53:39.239Z,99737.97
2023-07-11T23:56:17.495Z,99734.50
2023-07-11T23:58:44.880Z,99722.94
